ORER/EBL METAR and TAF weather

Enter ICAO airport designator
Station Type Date Time Source
ORER METAR 2021/03/07 23:00 UTC NOAA

ORER 072300Z VRB02KT 8000 NSC 09/03 Q1016 NOSIG


Station Type Date Time Source
ORER Decoded METAR 2021/03/07 23:00 UTC NOAA

Station name not available
Mar 07, 2021 - 06:00 PM EST / 2021.03.07 2300 UTC
Wind: Variable at 2 MPH (2 KT):0
Visibility: 4 mile(s):0
Temperature: 48 F (9 C)
Dew Point: 37 F (3 C)
Relative Humidity: 66%
Pressure (altimeter): 30.00 in. Hg (1016 hPa)
ob: ORER 072300Z VRB02KT 8000 NSC 09/03 Q1016 NOSIG
cycle: 23

Station Type Date Time Source
ORER TAF 2021/03/07 18:58 UTC NOAA

TAF ORER 071600Z 0718/0818 31008KT 8000 NSC

Example: see airport list